createdAt,value
2023-05-07T00:00:48.901Z,70.31
2023-05-07T00:02:50.847Z,70.17
2023-05-07T00:04:52.706Z,69.97
2023-05-07T00:06:54.327Z,70.01
2023-05-07T00:08:57.584Z,70.18
2023-05-07T00:10:59.516Z,70.75
2023-05-07T00:13:01.106Z,70.43
2023-05-07T00:15:03.595Z,70.44
2023-05-07T00:17:06.832Z,70.42
2023-05-07T00:19:08.653Z,70.18
2023-05-07T00:21:10.193Z,70.60
2023-05-07T00:23:11.826Z,70.14
2023-05-07T00:25:13.681Z,70.41
2023-05-07T00:27:15.603Z,70.37
2023-05-07T00:29:18.724Z,70.94
2023-05-07T00:31:20.629Z,70.58
2023-05-07T00:33:23.712Z,70.30
2023-05-07T00:35:26.042Z,70.07
2023-05-07T00:37:27.920Z,70.25
2023-05-07T00:39:29.552Z,69.77
2023-05-07T00:41:31.388Z,69.76
2023-05-07T00:43:33.043Z,69.67
2023-05-07T00:45:35.160Z,69.81
2023-05-07T00:47:38.323Z,70.33
2023-05-07T00:49:43.891Z,69.96
2023-05-07T00:51:46.418Z,69.82
2023-05-07T00:53:48.669Z,69.81
2023-05-07T00:55:50.457Z,70.48
2023-05-07T00:57:53.141Z,70.27
2023-05-07T00:59:54.809Z,70.57
2023-05-07T01:01:56.684Z,70.58
2023-05-07T01:03:58.586Z,70.37
2023-05-07T01:06:03.737Z,70.19
2023-05-07T01:08:05.878Z,70.04
2023-05-07T01:10:09.351Z,70.41
2023-05-07T01:12:11.892Z,70.61
2023-05-07T01:14:13.662Z,70.33
2023-05-07T01:16:15.279Z,70.65
2023-05-07T01:18:17.598Z,70.42
2023-05-07T01:20:19.887Z,70.10
2023-05-07T01:22:31.099Z,69.47
2023-05-07T01:24:33.360Z,70.52
2023-05-07T01:26:35.263Z,70.65
2023-05-07T01:28:37.933Z,70.81
2023-05-07T01:30:50.642Z,69.56
2023-05-07T01:32:57.799Z,70.95
2023-05-07T01:35:01.350Z,70.88
2023-05-07T01:37:03.867Z,70.92
2023-05-07T01:39:07.854Z,70.91
2023-05-07T01:41:09.626Z,71.56
2023-05-07T01:43:12.030Z,71.70
2023-05-07T01:45:13.874Z,71.60
2023-05-07T01:47:16.460Z,71.86
2023-05-07T01:49:18.406Z,71.51
2023-05-07T01:51:20.712Z,71.96
2023-05-07T01:53:22.220Z,71.46
2023-05-07T01:55:25.316Z,71.30
2023-05-07T01:57:26.961Z,71.53
2023-05-07T01:59:28.582Z,71.28
2023-05-07T02:01:30.524Z,71.15
2023-05-07T02:03:32.449Z,71.20
2023-05-07T02:05:34.380Z,71.56
2023-05-07T02:07:36.203Z,71.46
2023-05-07T02:09:38.143Z,71.52
2023-05-07T02:11:41.101Z,71.14
2023-05-07T02:13:42.911Z,71.57
2023-05-07T02:15:44.891Z,71.45
2023-05-07T02:18:03.977Z,69.91
2023-05-07T02:20:07.330Z,71.53
2023-05-07T02:22:10.980Z,71.82
2023-05-07T02:24:13.964Z,71.22
2023-05-07T02:26:15.899Z,71.89
2023-05-07T02:28:18.889Z,71.39
2023-05-07T02:30:20.641Z,71.95
2023-05-07T02:32:22.285Z,71.80
2023-05-07T02:34:24.109Z,71.87
2023-05-07T02:36:25.888Z,71.62
2023-05-07T02:38:27.743Z,72.11
2023-05-07T02:40:29.229Z,72.23
2023-05-07T02:42:30.997Z,72.06
2023-05-07T02:44:34.488Z,72.14
2023-05-07T02:46:36.303Z,72.42
2023-05-07T02:48:37.985Z,71.96
2023-05-07T02:50:39.545Z,72.76
2023-05-07T02:52:41.170Z,72.73
2023-05-07T02:54:42.748Z,72.37
2023-05-07T02:56:44.667Z,71.97
2023-05-07T02:58:46.533Z,71.84
2023-05-07T03:00:49.666Z,71.81
2023-05-07T03:02:51.705Z,71.76
2023-05-07T03:04:53.325Z,71.59
2023-05-07T03:06:55.332Z,71.82
2023-05-07T03:08:56.944Z,71.59
2023-05-07T03:10:59.080Z,71.58
2023-05-07T03:13:00.715Z,71.13
2023-05-07T03:15:02.668Z,71.01
2023-05-07T03:17:05.600Z,71.97
2023-05-07T03:19:07.511Z,71.57
2023-05-07T03:21:09.437Z,71.42
2023-05-07T03:23:11.571Z,71.43
2023-05-07T03:25:13.385Z,71.92
2023-05-07T03:27:15.265Z,71.49
2023-05-07T03:29:16.809Z,71.88
2023-05-07T03:31:19.461Z,71.96
2023-05-07T03:33:22.532Z,71.73
2023-05-07T03:35:24.470Z,71.80
2023-05-07T03:37:27.190Z,71.85
2023-05-07T03:39:29.485Z,71.81
2023-05-07T03:41:33.675Z,71.22
2023-05-07T03:43:35.312Z,71.59
2023-05-07T03:45:38.459Z,71.82
2023-05-07T03:47:40.482Z,71.81
2023-05-07T03:49:46.122Z,71.21
2023-05-07T03:51:47.763Z,71.30
2023-05-07T03:53:49.641Z,71.26
2023-05-07T03:55:51.314Z,71.47
2023-05-07T03:57:53.603Z,71.31
2023-05-07T03:59:55.463Z,71.61
2023-05-07T04:01:59.170Z,70.99
2023-05-07T04:04:01.125Z,71.43
2023-05-07T04:06:04.207Z,70.89
2023-05-07T04:08:05.779Z,71.10
2023-05-07T04:10:08.065Z,71.47
2023-05-07T04:12:09.878Z,71.34
2023-05-07T04:14:12.651Z,71.72
2023-05-07T04:16:14.572Z,71.41
2023-05-07T04:18:16.316Z,71.67
2023-05-07T04:20:18.669Z,71.77
2023-05-07T04:22:22.920Z,72.29
2023-05-07T04:24:24.542Z,72.02
2023-05-07T04:26:26.094Z,71.70
2023-05-07T04:28:27.621Z,71.77
2023-05-07T04:30:30.082Z,71.62
2023-05-07T04:32:31.957Z,71.62
2023-05-07T04:34:33.738Z,72.50
2023-05-07T04:36:35.396Z,71.72
2023-05-07T04:38:38.408Z,72.29
2023-05-07T04:40:40.100Z,72.10
2023-05-07T04:42:41.689Z,72.05
2023-05-07T04:44:43.736Z,72.59
2023-05-07T04:46:47.724Z,72.81
2023-05-07T04:48:49.374Z,73.29
2023-05-07T04:50:51.498Z,72.51
2023-05-07T04:52:53.153Z,72.67
2023-05-07T04:54:56.090Z,72.61
2023-05-07T04:56:57.724Z,72.84
2023-05-07T04:58:59.476Z,72.65
2023-05-07T05:01:01.696Z,72.08
2023-05-07T05:03:03.721Z,72.66
2023-05-07T05:05:06.649Z,72.68
2023-05-07T05:07:08.485Z,72.51
2023-05-07T05:09:11.619Z,71.64
2023-05-07T05:11:14.739Z,72.19
2023-05-07T05:13:16.595Z,71.87
2023-05-07T05:15:18.700Z,71.97
2023-05-07T05:17:20.350Z,71.67
2023-05-07T05:19:22.032Z,71.41
2023-05-07T05:21:23.667Z,71.60
2023-05-07T05:23:25.932Z,72.04
2023-05-07T05:25:27.776Z,71.41
2023-05-07T05:27:31.170Z,71.28
2023-05-07T05:29:33.057Z,71.01
2023-05-07T05:31:34.793Z,71.41
2023-05-07T05:33:36.398Z,71.33
2023-05-07T05:35:38.842Z,70.24
2023-05-07T05:37:40.349Z,70.05
2023-05-07T05:39:41.919Z,70.38
2023-05-07T05:41:43.834Z,69.95
2023-05-07T05:43:46.892Z,70.13
2023-05-07T05:45:48.548Z,69.89
2023-05-07T05:47:50.139Z,70.52
2023-05-07T05:49:52.014Z,68.73
2023-05-07T05:51:53.832Z,69.19
2023-05-07T05:53:55.703Z,68.37
2023-05-07T05:55:58.003Z,68.87
2023-05-07T05:57:59.766Z,68.84
2023-05-07T06:00:03.221Z,67.89
2023-05-07T06:02:04.827Z,67.77
2023-05-07T06:04:06.677Z,68.20
2023-05-07T06:06:08.251Z,67.92
2023-05-07T06:08:10.291Z,67.59
2023-05-07T06:10:11.960Z,67.01
2023-05-07T06:12:13.805Z,66.29
2023-05-07T06:14:15.351Z,66.08
2023-05-07T06:16:18.560Z,66.41
2023-05-07T06:18:20.147Z,65.85
2023-05-07T06:20:21.737Z,65.63
2023-05-07T06:22:23.529Z,64.74
2023-05-07T06:24:25.590Z,64.19
2023-05-07T06:26:28.907Z,62.88
2023-05-07T06:28:30.632Z,63.62
2023-05-07T06:30:32.415Z,62.98
2023-05-07T06:32:35.912Z,63.13
2023-05-07T06:34:38.248Z,62.25
2023-05-07T06:36:39.799Z,60.95
2023-05-07T06:38:41.389Z,60.00
2023-05-07T06:40:43.425Z,60.77
2023-05-07T06:42:45.366Z,58.73
2023-05-07T06:44:47.048Z,59.33
2023-05-07T06:46:48.969Z,59.55
2023-05-07T06:48:53.048Z,58.78
2023-05-07T06:50:54.796Z,57.64
2023-05-07T06:52:56.367Z,56.46
2023-05-07T06:54:57.967Z,57.50
2023-05-07T06:56:59.727Z,56.68
2023-05-07T06:59:01.781Z,55.93
2023-05-07T07:01:03.651Z,55.38
2023-05-07T07:03:05.822Z,54.06
2023-05-07T07:05:10.189Z,55.63
2023-05-07T07:07:11.827Z,54.01
2023-05-07T07:09:13.976Z,53.16
2023-05-07T07:11:16.596Z,53.27
2023-05-07T07:13:18.476Z,53.10
2023-05-07T07:15:21.053Z,51.32
2023-05-07T07:17:24.640Z,51.90
2023-05-07T07:19:27.424Z,52.46
2023-05-07T07:21:30.681Z,52.18
2023-05-07T07:23:32.697Z,50.92
2023-05-07T07:25:34.681Z,50.21
2023-05-07T07:27:37.700Z,49.94
2023-05-07T07:29:39.616Z,49.02
2023-05-07T07:31:41.294Z,49.48
2023-05-07T07:33:43.329Z,49.93
2023-05-07T07:35:45.166Z,48.18
2023-05-07T07:37:48.378Z,48.51
2023-05-07T07:39:49.989Z,47.24
2023-05-07T07:41:51.793Z,47.39
2023-05-07T07:43:53.649Z,48.15
2023-05-07T07:45:55.238Z,47.06
2023-05-07T07:47:56.800Z,45.87
2023-05-07T07:49:58.735Z,45.61
2023-05-07T07:52:00.355Z,45.27
2023-05-07T07:54:04.034Z,45.89
2023-05-07T07:56:06.209Z,45.90
2023-05-07T07:58:08.370Z,46.00
2023-05-07T08:00:11.741Z,44.96
2023-05-07T08:02:13.773Z,44.99
2023-05-07T08:04:15.445Z,45.08
2023-05-07T08:06:17.343Z,44.37
2023-05-07T08:08:18.980Z,45.09
2023-05-07T08:10:23.092Z,45.03
2023-05-07T08:12:25.142Z,43.11
2023-05-07T08:14:28.843Z,43.32
2023-05-07T08:16:31.099Z,43.45
2023-05-07T08:18:33.215Z,43.47
2023-05-07T08:20:35.139Z,43.47
2023-05-07T08:22:36.853Z,43.62
2023-05-07T08:24:38.668Z,42.71
2023-05-07T08:26:41.964Z,43.82
2023-05-07T08:28:43.589Z,43.89
2023-05-07T08:30:45.584Z,43.18
2023-05-07T08:32:47.662Z,42.71
2023-05-07T08:34:49.529Z,42.00
2023-05-07T08:36:51.453Z,41.59
2023-05-07T08:38:54.111Z,41.18
2023-05-07T08:40:55.722Z,40.52
2023-05-07T08:42:59.857Z,41.15
2023-05-07T08:45:03.403Z,39.89
2023-05-07T08:47:08.373Z,41.05
2023-05-07T08:49:10.436Z,40.17
2023-05-07T08:51:13.727Z,40.88
2023-05-07T08:53:18.012Z,40.64
2023-05-07T08:55:19.953Z,39.00
2023-05-07T08:57:21.924Z,40.10
2023-05-07T08:59:25.324Z,38.76
2023-05-07T09:01:27.374Z,39.18
2023-05-07T09:03:29.014Z,39.71
2023-05-07T09:05:30.668Z,39.25
2023-05-07T09:07:32.497Z,38.18
2023-05-07T09:09:34.702Z,38.38
2023-05-07T09:11:36.762Z,38.75
2023-05-07T09:13:38.842Z,38.97
2023-05-07T09:15:42.286Z,38.40
2023-05-07T09:17:44.383Z,38.29
2023-05-07T09:19:46.647Z,37.87
2023-05-07T09:21:48.734Z,37.14
2023-05-07T09:23:55.045Z,39.52
2023-05-07T09:26:01.494Z,38.89
2023-05-07T09:28:04.515Z,36.39
2023-05-07T09:30:07.488Z,37.06
2023-05-07T09:32:10.559Z,36.76
2023-05-07T09:34:12.264Z,36.82
2023-05-07T09:36:14.247Z,35.75
2023-05-07T09:38:19.673Z,36.56
2023-05-07T09:40:22.118Z,35.73
2023-05-07T09:42:26.848Z,36.95
2023-05-07T09:44:28.534Z,36.00
2023-05-07T09:46:32.355Z,35.81
2023-05-07T09:48:40.001Z,37.69
2023-05-07T09:50:52.737Z,37.37
2023-05-07T09:52:55.244Z,35.48
2023-05-07T09:54:59.596Z,36.02
2023-05-07T09:57:03.315Z,35.99
2023-05-07T09:59:07.938Z,35.69
2023-05-07T10:01:13.727Z,35.21
2023-05-07T10:03:15.598Z,35.17
2023-05-07T10:05:19.391Z,35.43
2023-05-07T10:07:21.919Z,34.37
2023-05-07T10:09:24.203Z,34.56
2023-05-07T10:11:25.923Z,33.87
2023-05-07T10:13:28.489Z,33.10
2023-05-07T10:15:30.659Z,32.95
2023-05-07T10:17:33.265Z,34.20
2023-05-07T10:19:36.840Z,33.11
2023-05-07T10:21:44.869Z,33.72
2023-05-07T10:23:50.054Z,33.58
2023-05-07T10:25:53.750Z,32.51
2023-05-07T10:28:07.464Z,34.78
2023-05-07T10:30:23.739Z,36.42
2023-05-07T10:32:38.243Z,35.62
2023-05-07T10:34:45.814Z,33.84
2023-05-07T10:36:49.492Z,32.76
2023-05-07T10:38:51.370Z,32.67
2023-05-07T10:40:53.663Z,32.68
2023-05-07T10:42:56.984Z,33.58
2023-05-07T10:44:58.942Z,32.26
2023-05-07T10:47:07.832Z,35.43
2023-05-07T10:49:12.720Z,34.35
2023-05-07T10:51:22.079Z,34.91
2023-05-07T10:53:26.308Z,33.54
2023-05-07T10:55:28.141Z,32.78
2023-05-07T10:57:36.315Z,34.52
2023-05-07T10:59:38.030Z,32.43
2023-05-07T11:01:54.225Z,35.78
2023-05-07T11:04:15.334Z,36.10
2023-05-07T11:06:17.998Z,31.40
2023-05-07T11:08:19.548Z,31.79
2023-05-07T11:10:22.954Z,31.85
2023-05-07T11:12:56.990Z,33.60
2023-05-07T11:14:58.892Z,30.94
2023-05-07T11:17:03.547Z,32.08
2023-05-07T11:19:05.716Z,30.48
2023-05-07T11:21:07.303Z,31.19
2023-05-07T11:23:08.873Z,30.09
2023-05-07T11:25:11.016Z,30.59
2023-05-07T11:27:14.717Z,31.00
2023-05-07T11:29:22.150Z,29.96
2023-05-07T11:31:26.637Z,30.38
2023-05-07T11:33:28.627Z,30.89
2023-05-07T11:35:30.741Z,30.42
2023-05-07T11:37:32.692Z,30.01
2023-05-07T11:39:35.372Z,30.82
2023-05-07T11:41:38.053Z,30.69
2023-05-07T11:43:55.678Z,34.05
2023-05-07T11:46:07.173Z,32.79
2023-05-07T11:48:09.279Z,31.38
2023-05-07T11:50:11.648Z,30.74
2023-05-07T11:52:14.228Z,30.98
2023-05-07T11:54:18.638Z,32.50
2023-05-07T11:56:21.392Z,30.94
2023-05-07T11:58:24.956Z,32.29
2023-05-07T12:00:28.057Z,30.76
2023-05-07T12:02:30.035Z,31.13
2023-05-07T12:04:31.865Z,31.41
2023-05-07T12:06:38.215Z,31.95
2023-05-07T12:08:41.815Z,30.36
2023-05-07T12:10:44.098Z,30.24
2023-05-07T12:12:47.488Z,30.68
2023-05-07T12:14:49.212Z,32.05
2023-05-07T12:16:53.057Z,32.34
2023-05-07T12:18:55.112Z,33.04
2023-05-07T12:20:57.300Z,33.33
2023-05-07T12:22:59.305Z,33.69
2023-05-07T12:25:01.099Z,34.04
2023-05-07T12:27:03.249Z,34.28
2023-05-07T12:29:05.297Z,32.86
2023-05-07T12:31:09.439Z,33.43
2023-05-07T12:33:15.698Z,34.76
2023-05-07T12:35:17.834Z,33.81
2023-05-07T12:37:24.953Z,35.57
2023-05-07T12:39:26.533Z,32.62
2023-05-07T12:41:28.104Z,32.47
2023-05-07T12:43:30.703Z,32.57
2023-05-07T12:45:32.485Z,32.15
2023-05-07T12:47:34.595Z,31.83
2023-05-07T12:49:37.935Z,32.15
2023-05-07T12:51:39.691Z,31.86
2023-05-07T12:53:42.212Z,31.86
2023-05-07T12:55:45.772Z,31.65
2023-05-07T12:57:50.390Z,30.24
2023-05-07T12:59:52.184Z,29.51
2023-05-07T13:01:54.516Z,29.51
2023-05-07T13:03:56.307Z,30.28
2023-05-07T13:06:01.116Z,30.57
2023-05-07T13:08:02.979Z,29.59
2023-05-07T13:10:05.265Z,30.34
2023-05-07T13:12:07.421Z,30.29
2023-05-07T13:14:09.045Z,30.03
2023-05-07T13:16:12.507Z,29.68
2023-05-07T13:18:14.517Z,28.22
2023-05-07T13:20:16.452Z,28.60
2023-05-07T13:22:19.446Z,28.49
2023-05-07T13:24:21.012Z,29.66
2023-05-07T13:26:26.646Z,29.02
2023-05-07T13:28:28.788Z,28.43
2023-05-07T13:30:30.319Z,29.12
2023-05-07T13:32:32.063Z,28.57
2023-05-07T13:34:33.954Z,29.59
2023-05-07T13:36:35.503Z,29.69
2023-05-07T13:38:38.505Z,29.22
2023-05-07T13:40:40.109Z,29.37
2023-05-07T13:42:41.954Z,29.94
2023-05-07T13:44:43.512Z,28.78
2023-05-07T13:46:45.084Z,28.79
2023-05-07T13:48:46.673Z,29.19
2023-05-07T13:50:48.465Z,28.83
2023-05-07T13:52:50.262Z,29.28
2023-05-07T13:54:53.373Z,29.13
2023-05-07T13:56:55.010Z,29.21
2023-05-07T13:59:00.475Z,28.52
2023-05-07T14:01:02.431Z,28.96
2023-05-07T14:03:05.965Z,29.23
2023-05-07T14:05:08.197Z,29.29
2023-05-07T14:07:09.722Z,28.93
2023-05-07T14:09:11.349Z,29.12
2023-05-07T14:11:14.344Z,29.57
2023-05-07T14:13:16.117Z,29.13
2023-05-07T14:15:17.850Z,29.20
2023-05-07T14:17:19.941Z,29.30
2023-05-07T14:19:21.954Z,29.47
2023-05-07T14:21:23.809Z,28.84
2023-05-07T14:23:25.934Z,29.23
2023-05-07T14:25:29.364Z,28.44
2023-05-07T14:27:32.446Z,29.85
2023-05-07T14:29:34.401Z,29.44
2023-05-07T14:31:36.104Z,29.44
2023-05-07T14:33:39.131Z,28.38
2023-05-07T14:35:42.185Z,29.67
2023-05-07T14:37:43.981Z,29.59
2023-05-07T14:39:49.908Z,29.47
2023-05-07T14:41:52.194Z,29.23
2023-05-07T14:43:55.179Z,29.58
2023-05-07T14:45:56.999Z,28.84
2023-05-07T14:47:58.641Z,28.99
2023-05-07T14:50:00.249Z,29.15
2023-05-07T14:52:01.984Z,29.42
2023-05-07T14:54:04.148Z,29.01
2023-05-07T14:56:06.308Z,29.38
2023-05-07T14:58:08.292Z,29.78
2023-05-07T15:00:12.540Z,29.42
2023-05-07T15:02:14.502Z,29.73
2023-05-07T15:04:16.624Z,29.57
2023-05-07T15:06:18.474Z,28.88
2023-05-07T15:08:20.209Z,28.99
2023-05-07T15:10:21.970Z,29.67
2023-05-07T15:12:24.047Z,29.86
2023-05-07T15:14:25.778Z,30.07
2023-05-07T15:16:29.273Z,29.84
2023-05-07T15:18:31.104Z,28.96
2023-05-07T15:20:32.845Z,29.21
2023-05-07T15:22:35.202Z,29.60
2023-05-07T15:24:36.911Z,30.00
2023-05-07T15:26:38.475Z,29.98
2023-05-07T15:28:41.408Z,29.67
2023-05-07T15:30:43.291Z,29.66
2023-05-07T15:32:47.058Z,29.89
2023-05-07T15:34:48.751Z,30.26
2023-05-07T15:36:50.499Z,29.44
2023-05-07T15:38:52.118Z,30.22
2023-05-07T15:40:54.026Z,29.84
2023-05-07T15:42:57.324Z,30.34
2023-05-07T15:44:59.284Z,30.63
2023-05-07T15:47:01.213Z,30.23
2023-05-07T15:49:04.564Z,30.56
2023-05-07T15:51:06.258Z,30.30
2023-05-07T15:53:08.592Z,30.76
2023-05-07T15:55:10.720Z,30.99
2023-05-07T15:57:12.645Z,30.93
2023-05-07T15:59:14.304Z,30.07
2023-05-07T16:01:16.123Z,30.45
2023-05-07T16:03:20.270Z,30.96
2023-05-07T16:05:23.690Z,31.14
2023-05-07T16:07:25.302Z,31.17
2023-05-07T16:09:29.100Z,31.75
2023-05-07T16:11:30.924Z,31.22
2023-05-07T16:13:32.507Z,31.67
2023-05-07T16:15:34.115Z,31.70
2023-05-07T16:17:35.772Z,32.02
2023-05-07T16:19:37.451Z,32.09
2023-05-07T16:21:40.649Z,32.59
2023-05-07T16:23:42.548Z,32.18
2023-05-07T16:25:44.650Z,32.18
2023-05-07T16:27:47.231Z,32.01
2023-05-07T16:29:49.041Z,31.76
2023-05-07T16:31:50.876Z,31.83
2023-05-07T16:33:52.799Z,31.96
2023-05-07T16:35:55.284Z,31.63
2023-05-07T16:38:01.192Z,32.45
2023-05-07T16:40:02.982Z,32.57
2023-05-07T16:42:04.943Z,32.48
2023-05-07T16:44:06.454Z,32.53
2023-05-07T16:46:08.034Z,33.05
2023-05-07T16:48:09.763Z,34.02
2023-05-07T16:50:13.724Z,33.25
2023-05-07T16:52:15.364Z,33.26
2023-05-07T16:54:18.304Z,32.88
2023-05-07T16:56:19.915Z,33.43
2023-05-07T16:58:21.727Z,33.68
2023-05-07T17:00:23.473Z,33.42
2023-05-07T17:02:25.122Z,33.69
2023-05-07T17:04:26.791Z,34.21
2023-05-07T17:06:28.335Z,34.56
2023-05-07T17:08:29.985Z,34.83
2023-05-07T17:10:33.991Z,34.81
2023-05-07T17:12:39.194Z,34.89
2023-05-07T17:14:40.921Z,35.09
2023-05-07T17:16:43.670Z,34.72
2023-05-07T17:18:45.530Z,35.04
2023-05-07T17:20:47.228Z,35.14
2023-05-07T17:22:49.039Z,35.61
2023-05-07T17:24:50.689Z,36.01
2023-05-07T17:26:53.606Z,35.26
2023-05-07T17:28:55.236Z,35.45
2023-05-07T17:30:57.130Z,35.37
2023-05-07T17:33:09.364Z,35.47
2023-05-07T17:35:15.557Z,35.32
2023-05-07T17:37:17.230Z,35.57
2023-05-07T17:39:19.194Z,36.46
2023-05-07T17:41:20.788Z,36.48
2023-05-07T17:43:26.553Z,37.01
2023-05-07T17:45:28.428Z,37.19
2023-05-07T17:47:30.110Z,37.37
2023-05-07T17:49:31.695Z,37.41
2023-05-07T17:51:42.476Z,37.95
2023-05-07T17:53:54.919Z,38.47
2023-05-07T17:55:56.802Z,38.27
2023-05-07T17:57:58.454Z,38.85
2023-05-07T18:00:02.057Z,39.24
2023-05-07T18:02:03.702Z,39.15
2023-05-07T18:04:05.433Z,39.05
2023-05-07T18:06:09.463Z,39.29
2023-05-07T18:08:11.844Z,39.13
2023-05-07T18:10:13.591Z,39.38
2023-05-07T18:12:15.458Z,39.67
2023-05-07T18:14:17.215Z,40.05
2023-05-07T18:16:20.432Z,39.99
2023-05-07T18:18:22.076Z,40.59
2023-05-07T18:20:23.778Z,41.08
2023-05-07T18:22:25.660Z,40.77
2023-05-07T18:24:27.294Z,41.19
2023-05-07T18:26:29.105Z,41.10
2023-05-07T18:28:30.733Z,41.09
2023-05-07T18:30:32.561Z,41.56
2023-05-07T18:32:35.599Z,41.46
2023-05-07T18:34:37.222Z,41.48
2023-05-07T18:36:38.931Z,42.16
2023-05-07T18:38:40.590Z,42.23
2023-05-07T18:40:42.205Z,42.47
2023-05-07T18:42:43.721Z,42.36
2023-05-07T18:44:46.887Z,42.87
2023-05-07T18:46:48.761Z,43.02
2023-05-07T18:48:51.869Z,43.12
2023-05-07T18:50:53.532Z,42.99
2023-05-07T18:52:55.152Z,43.17
2023-05-07T18:54:56.981Z,43.61
2023-05-07T18:57:00.052Z,44.30
2023-05-07T18:59:01.772Z,44.09
2023-05-07T19:01:05.046Z,44.44
2023-05-07T19:03:06.904Z,44.70
2023-05-07T19:05:10.304Z,44.85
2023-05-07T19:07:12.004Z,45.45
2023-05-07T19:09:13.622Z,45.50
2023-05-07T19:11:15.175Z,45.85
2023-05-07T19:13:17.435Z,45.36
2023-05-07T19:15:19.482Z,45.72
2023-05-07T19:17:21.343Z,45.98
2023-05-07T19:19:23.499Z,46.49
2023-05-07T19:21:26.444Z,46.36
2023-05-07T19:23:30.209Z,46.77
2023-05-07T19:25:32.036Z,47.04
2023-05-07T19:27:33.571Z,46.72
2023-05-07T19:29:35.342Z,46.89
2023-05-07T19:31:37.532Z,46.90
2023-05-07T19:33:39.213Z,47.35
2023-05-07T19:35:41.053Z,47.67
2023-05-07T19:37:44.038Z,47.43
2023-05-07T19:39:46.438Z,47.71
2023-05-07T19:41:48.302Z,47.89
2023-05-07T19:43:50.621Z,47.85
2023-05-07T19:45:53.020Z,48.25
2023-05-07T19:47:54.617Z,48.60
2023-05-07T19:49:56.408Z,49.15
2023-05-07T19:51:57.960Z,48.93
2023-05-07T19:54:01.988Z,48.83
2023-05-07T19:56:05.036Z,48.84
2023-05-07T19:58:06.951Z,49.37
2023-05-07T20:00:09.805Z,49.53
2023-05-07T20:02:11.434Z,49.17
2023-05-07T20:04:13.088Z,49.23
2023-05-07T20:06:15.248Z,49.90
2023-05-07T20:08:16.913Z,50.14
2023-05-07T20:10:20.287Z,49.64
2023-05-07T20:12:22.065Z,50.09
2023-05-07T20:14:23.698Z,50.25
2023-05-07T20:16:25.376Z,50.62
2023-05-07T20:18:28.684Z,50.44
2023-05-07T20:20:30.471Z,50.48
2023-05-07T20:22:32.468Z,50.41
2023-05-07T20:24:37.194Z,49.99
2023-05-07T20:26:43.024Z,50.28
2023-05-07T20:28:45.134Z,50.84
2023-05-07T20:30:46.746Z,50.89
2023-05-07T20:32:48.599Z,50.86
2023-05-07T20:34:50.751Z,51.19
2023-05-07T20:36:52.623Z,50.66
2023-05-07T20:38:54.900Z,50.99
2023-05-07T20:40:56.947Z,51.10
2023-05-07T20:42:59.993Z,50.98
2023-05-07T20:45:03.575Z,50.94
2023-05-07T20:47:05.766Z,51.53
2023-05-07T20:49:07.710Z,51.55
2023-05-07T20:51:09.315Z,51.31
2023-05-07T20:53:11.094Z,51.24
2023-05-07T20:55:12.741Z,51.70
2023-05-07T20:57:14.337Z,51.84
2023-05-07T20:59:17.376Z,52.15
2023-05-07T21:01:19.143Z,52.02
2023-05-07T21:03:21.972Z,52.51
2023-05-07T21:05:23.570Z,52.60
2023-05-07T21:07:25.361Z,53.38
2023-05-07T21:09:29.037Z,52.63
2023-05-07T21:11:30.751Z,52.95
2023-05-07T21:13:32.509Z,53.18
2023-05-07T21:15:35.931Z,53.63
2023-05-07T21:17:38.126Z,53.43
2023-05-07T21:19:39.944Z,53.45
2023-05-07T21:21:42.103Z,53.60
2023-05-07T21:23:43.996Z,54.08
2023-05-07T21:25:45.686Z,54.50
2023-05-07T21:27:47.614Z,54.12
2023-05-07T21:29:49.232Z,54.80
2023-05-07T21:31:52.502Z,54.29
2023-05-07T21:33:54.089Z,54.89
2023-05-07T21:35:55.711Z,54.69
2023-05-07T21:37:57.253Z,54.78
2023-05-07T21:39:59.373Z,55.28
2023-05-07T21:42:00.901Z,55.13
2023-05-07T21:44:02.584Z,54.87
2023-05-07T21:46:06.603Z,55.18
2023-05-07T21:48:13.962Z,54.26
2023-05-07T21:50:16.258Z,55.43
2023-05-07T21:52:18.797Z,55.68
2023-05-07T21:54:20.680Z,55.22
2023-05-07T21:56:22.309Z,55.95
2023-05-07T21:58:24.177Z,55.36
2023-05-07T22:00:26.016Z,56.02
2023-05-07T22:02:27.671Z,56.00
2023-05-07T22:04:30.937Z,55.56
2023-05-07T22:06:32.549Z,55.98
2023-05-07T22:08:34.154Z,55.96
2023-05-07T22:10:36.067Z,55.80
2023-05-07T22:12:38.650Z,55.71
2023-05-07T22:14:40.221Z,56.47
2023-05-07T22:16:42.143Z,56.53
2023-05-07T22:18:43.744Z,56.60
2023-05-07T22:20:46.917Z,56.60
2023-05-07T22:22:51.213Z,56.59
2023-05-07T22:24:54.032Z,56.21
2023-05-07T22:26:55.968Z,56.14
2023-05-07T22:28:57.525Z,56.31
2023-05-07T22:30:59.365Z,56.41
2023-05-07T22:33:01.311Z,57.11
2023-05-07T22:35:03.134Z,57.02
2023-05-07T22:37:06.372Z,57.11
2023-05-07T22:39:07.920Z,57.01
2023-05-07T22:41:09.602Z,57.06
2023-05-07T22:43:11.261Z,56.93
2023-05-07T22:45:12.913Z,56.88
2023-05-07T22:47:14.718Z,57.42
2023-05-07T22:49:16.362Z,56.82
2023-05-07T22:51:18.052Z,57.49
2023-05-07T22:53:21.461Z,57.12
2023-05-07T22:55:23.204Z,56.95
2023-05-07T22:57:24.964Z,57.75
2023-05-07T22:59:26.595Z,57.27
2023-05-07T23:01:28.273Z,57.56
2023-05-07T23:03:30.215Z,57.64
2023-05-07T23:05:31.932Z,57.38
2023-05-07T23:07:33.709Z,57.28
2023-05-07T23:09:36.779Z,57.37
2023-05-07T23:11:38.581Z,57.35
2023-05-07T23:13:40.214Z,57.61
2023-05-07T23:15:42.888Z,57.64
2023-05-07T23:17:45.903Z,57.01
2023-05-07T23:19:48.012Z,57.45
2023-05-07T23:21:49.658Z,57.72
2023-05-07T23:23:51.303Z,57.58
2023-05-07T23:25:54.355Z,57.74
2023-05-07T23:27:56.162Z,57.71
2023-05-07T23:29:58.677Z,57.81
2023-05-07T23:32:00.993Z,57.43
2023-05-07T23:34:02.842Z,57.78
2023-05-07T23:36:06.631Z,57.83
2023-05-07T23:38:08.185Z,57.54
2023-05-07T23:40:10.133Z,58.31
2023-05-07T23:42:15.360Z,57.98
2023-05-07T23:44:17.142Z,57.75
2023-05-07T23:46:20.463Z,57.80
2023-05-07T23:48:24.675Z,58.42
2023-05-07T23:50:26.940Z,57.80
2023-05-07T23:52:34.621Z,58.17
2023-05-07T23:54:36.415Z,57.75
2023-05-07T23:56:38.309Z,58.26
2023-05-07T23:58:41.388Z,58.28
